sensor_id;sensor_type;location;lat;lon;timestamp;P1;durP1;ratioP1;P2;durP2;ratioP2
44664;SDS011;30382;48.802;9.388;2023-02-15T00:01:55;26.53;;;16.63;;
44664;SDS011;30382;48.802;9.388;2023-02-15T00:04:39;29.43;;;17.97;;
44664;SDS011;30382;48.802;9.388;2023-02-15T00:07:32;24.40;;;14.63;;
44664;SDS011;30382;48.802;9.388;2023-02-15T00:10:17;22.53;;;15.40;;
44664;SDS011;30382;48.802;9.388;2023-02-15T00:13:01;26.13;;;15.80;;
44664;SDS011;30382;48.802;9.388;2023-02-15T00:15:45;24.20;;;15.90;;
44664;SDS011;30382;48.802;9.388;2023-02-15T00:18:30;22.27;;;15.53;;
44664;SDS011;30382;48.802;9.388;2023-02-15T00:21:15;18.87;;;13.33;;
44664;SDS011;30382;48.802;9.388;2023-02-15T00:24:00;20.60;;;14.53;;
44664;SDS011;30382;48.802;9.388;2023-02-15T00:26:45;21.40;;;15.00;;
44664;SDS011;30382;48.802;9.388;2023-02-15T00:29:30;18.13;;;13.00;;
44664;SDS011;30382;48.802;9.388;2023-02-15T00:32:14;21.10;;;14.63;;
44664;SDS011;30382;48.802;9.388;2023-02-15T00:34:59;23.57;;;13.93;;
44664;SDS011;30382;48.802;9.388;2023-02-15T00:37:43;21.20;;;14.17;;
44664;SDS011;30382;48.802;9.388;2023-02-15T00:40:27;18.13;;;13.57;;
44664;SDS011;30382;48.802;9.388;2023-02-15T00:43:12;22.43;;;13.73;;
44664;SDS011;30382;48.802;9.388;2023-02-15T00:46:00;20.17;;;13.90;;
44664;SDS011;30382;48.802;9.388;2023-02-15T00:48:45;21.23;;;14.37;;
44664;SDS011;30382;48.802;9.388;2023-02-15T00:51:29;18.90;;;12.43;;
44664;SDS011;30382;48.802;9.388;2023-02-15T00:54:14;20.07;;;12.40;;
44664;SDS011;30382;48.802;9.388;2023-02-15T00:56:58;21.90;;;13.07;;
44664;SDS011;30382;48.802;9.388;2023-02-15T00:59:43;19.67;;;11.57;;
44664;SDS011;30382;48.802;9.388;2023-02-15T01:02:27;17.40;;;13.13;;
44664;SDS011;30382;48.802;9.388;2023-02-15T01:05:12;21.07;;;13.00;;
44664;SDS011;30382;48.802;9.388;2023-02-15T01:07:57;23.50;;;15.27;;
44664;SDS011;30382;48.802;9.388;2023-02-15T01:10:41;19.97;;;12.93;;
44664;SDS011;30382;48.802;9.388;2023-02-15T01:13:28;21.20;;;13.70;;
44664;SDS011;30382;48.802;9.388;2023-02-15T01:16:12;22.43;;;14.93;;
44664;SDS011;30382;48.802;9.388;2023-02-15T01:18:57;20.77;;;13.27;;
44664;SDS011;30382;48.802;9.388;2023-02-15T01:21:41;18.43;;;13.30;;
44664;SDS011;30382;48.802;9.388;2023-02-15T01:24:27;25.43;;;12.70;;
44664;SDS011;30382;48.802;9.388;2023-02-15T01:27:11;20.27;;;13.77;;
44664;SDS011;30382;48.802;9.388;2023-02-15T01:29:55;18.70;;;13.53;;
44664;SDS011;30382;48.802;9.388;2023-02-15T01:32:40;15.93;;;12.17;;
44664;SDS011;30382;48.802;9.388;2023-02-15T01:35:26;19.00;;;12.93;;
44664;SDS011;30382;48.802;9.388;2023-02-15T01:38:12;23.63;;;13.20;;
44664;SDS011;30382;48.802;9.388;2023-02-15T01:40:56;18.20;;;12.37;;
44664;SDS011;30382;48.802;9.388;2023-02-15T01:44:01;23.40;;;13.80;;
44664;SDS011;30382;48.802;9.388;2023-02-15T01:46:47;18.67;;;12.23;;
44664;SDS011;30382;48.802;9.388;2023-02-15T01:49:33;23.60;;;15.53;;
44664;SDS011;30382;48.802;9.388;2023-02-15T01:52:18;20.20;;;14.37;;
44664;SDS011;30382;48.802;9.388;2023-02-15T01:55:02;25.47;;;15.33;;
44664;SDS011;30382;48.802;9.388;2023-02-15T01:57:48;20.50;;;14.00;;
44664;SDS011;30382;48.802;9.388;2023-02-15T02:00:33;24.97;;;14.13;;
44664;SDS011;30382;48.802;9.388;2023-02-15T02:03:20;19.30;;;14.27;;
44664;SDS011;30382;48.802;9.388;2023-02-15T02:06:08;20.80;;;13.53;;
44664;SDS011;30382;48.802;9.388;2023-02-15T02:08:53;21.20;;;14.23;;
44664;SDS011;30382;48.802;9.388;2023-02-15T02:11:38;20.13;;;12.93;;
44664;SDS011;30382;48.802;9.388;2023-02-15T02:14:23;20.97;;;14.00;;
44664;SDS011;30382;48.802;9.388;2023-02-15T02:17:19;19.53;;;12.10;;
44664;SDS011;30382;48.802;9.388;2023-02-15T02:31:20;17.53;;;12.77;;
44664;SDS011;30382;48.802;9.388;2023-02-15T02:34:15;26.97;;;15.30;;
44664;SDS011;30382;48.802;9.388;2023-02-15T02:37:09;21.13;;;15.13;;
44664;SDS011;30382;48.802;9.388;2023-02-15T02:40:01;21.83;;;13.90;;
44664;SDS011;30382;48.802;9.388;2023-02-15T02:42:49;18.93;;;13.80;;
44664;SDS011;30382;48.802;9.388;2023-02-15T02:45:40;23.23;;;13.97;;
44664;SDS011;30382;48.802;9.388;2023-02-15T02:48:29;20.67;;;13.20;;
44664;SDS011;30382;48.802;9.388;2023-02-15T02:51:14;21.20;;;14.67;;
44664;SDS011;30382;48.802;9.388;2023-02-15T02:54:05;20.67;;;14.23;;
44664;SDS011;30382;48.802;9.388;2023-02-15T02:56:50;22.77;;;14.37;;
44664;SDS011;30382;48.802;9.388;2023-02-15T02:59:38;20.70;;;13.30;;
44664;SDS011;30382;48.802;9.388;2023-02-15T03:02:26;17.10;;;12.13;;
44664;SDS011;30382;48.802;9.388;2023-02-15T03:05:14;20.97;;;14.63;;
44664;SDS011;30382;48.802;9.388;2023-02-15T03:07:59;22.27;;;15.27;;
44664;SDS011;30382;48.802;9.388;2023-02-15T03:10:52;18.67;;;14.43;;
44664;SDS011;30382;48.802;9.388;2023-02-15T03:13:37;24.67;;;14.77;;
44664;SDS011;30382;48.802;9.388;2023-02-15T03:16:23;23.57;;;16.03;;
44664;SDS011;30382;48.802;9.388;2023-02-15T03:19:16;31.97;;;19.63;;
44664;SDS011;30382;48.802;9.388;2023-02-15T03:22:10;22.93;;;16.63;;
44664;SDS011;30382;48.802;9.388;2023-02-15T03:24:59;27.87;;;16.23;;
44664;SDS011;30382;48.802;9.388;2023-02-15T03:27:46;26.03;;;15.17;;
44664;SDS011;30382;48.802;9.388;2023-02-15T03:30:31;28.23;;;16.03;;
44664;SDS011;30382;48.802;9.388;2023-02-15T03:33:17;24.30;;;15.63;;
44664;SDS011;30382;48.802;9.388;2023-02-15T03:36:04;20.13;;;14.17;;
44664;SDS011;30382;48.802;9.388;2023-02-15T03:38:53;25.77;;;15.67;;
44664;SDS011;30382;48.802;9.388;2023-02-15T03:41:46;21.53;;;13.83;;
44664;SDS011;30382;48.802;9.388;2023-02-15T03:44:33;26.77;;;15.80;;
44664;SDS011;30382;48.802;9.388;2023-02-15T03:47:20;23.90;;;16.27;;
44664;SDS011;30382;48.802;9.388;2023-02-15T03:50:18;27.23;;;16.30;;
44664;SDS011;30382;48.802;9.388;2023-02-15T03:53:22;25.90;;;16.23;;
44664;SDS011;30382;48.802;9.388;2023-02-15T03:56:07;20.70;;;14.20;;
44664;SDS011;30382;48.802;9.388;2023-02-15T03:58:51;55.90;;;30.80;;
44664;SDS011;30382;48.802;9.388;2023-02-15T04:02:09;29.30;;;19.50;;
44664;SDS011;30382;48.802;9.388;2023-02-15T04:04:56;25.37;;;17.63;;
44664;SDS011;30382;48.802;9.388;2023-02-15T04:07:41;29.47;;;19.40;;
44664;SDS011;30382;48.802;9.388;2023-02-15T04:10:25;38.97;;;20.07;;
44664;SDS011;30382;48.802;9.388;2023-02-15T04:13:32;33.80;;;19.33;;
44664;SDS011;30382;48.802;9.388;2023-02-15T04:16:16;39.20;;;17.60;;
44664;SDS011;30382;48.802;9.388;2023-02-15T04:19:00;29.63;;;17.10;;
44664;SDS011;30382;48.802;9.388;2023-02-15T04:22:03;32.57;;;17.83;;
44664;SDS011;30382;48.802;9.388;2023-02-15T04:25:07;29.80;;;19.10;;
44664;SDS011;30382;48.802;9.388;2023-02-15T04:27:57;35.80;;;20.73;;
44664;SDS011;30382;48.802;9.388;2023-02-15T04:30:41;46.80;;;22.13;;
44664;SDS011;30382;48.802;9.388;2023-02-15T04:33:25;86.93;;;25.03;;
44664;SDS011;30382;48.802;9.388;2023-02-15T04:36:10;36.60;;;20.80;;
44664;SDS011;30382;48.802;9.388;2023-02-15T04:38:54;54.60;;;22.50;;
44664;SDS011;30382;48.802;9.388;2023-02-15T04:41:38;50.97;;;20.43;;
44664;SDS011;30382;48.802;9.388;2023-02-15T04:44:23;100.63;;;25.13;;
44664;SDS011;30382;48.802;9.388;2023-02-15T04:47:07;98.70;;;26.67;;
44664;SDS011;30382;48.802;9.388;2023-02-15T04:49:51;73.80;;;22.70;;
44664;SDS011;30382;48.802;9.388;2023-02-15T04:52:36;74.37;;;25.70;;
44664;SDS011;30382;48.802;9.388;2023-02-15T04:55:20;82.17;;;26.60;;
44664;SDS011;30382;48.802;9.388;2023-02-15T04:58:04;75.90;;;26.57;;
44664;SDS011;30382;48.802;9.388;2023-02-15T05:00:49;74.57;;;25.80;;
44664;SDS011;30382;48.802;9.388;2023-02-15T05:03:33;52.27;;;22.77;;
44664;SDS011;30382;48.802;9.388;2023-02-15T05:06:18;66.40;;;24.40;;
44664;SDS011;30382;48.802;9.388;2023-02-15T05:09:02;84.93;;;26.37;;
44664;SDS011;30382;48.802;9.388;2023-02-15T05:11:46;73.60;;;25.80;;
44664;SDS011;30382;48.802;9.388;2023-02-15T05:14:31;78.47;;;26.47;;
44664;SDS011;30382;48.802;9.388;2023-02-15T05:17:15;61.93;;;24.00;;
44664;SDS011;30382;48.802;9.388;2023-02-15T05:20:00;50.57;;;23.07;;
44664;SDS011;30382;48.802;9.388;2023-02-15T05:22:44;43.87;;;24.73;;
44664;SDS011;30382;48.802;9.388;2023-02-15T05:25:28;48.77;;;23.23;;
44664;SDS011;30382;48.802;9.388;2023-02-15T05:28:31;54.73;;;28.07;;
44664;SDS011;30382;48.802;9.388;2023-02-15T05:31:16;51.23;;;23.13;;
44664;SDS011;30382;48.802;9.388;2023-02-15T05:34:02;48.33;;;21.20;;
44664;SDS011;30382;48.802;9.388;2023-02-15T05:36:46;45.50;;;22.40;;
44664;SDS011;30382;48.802;9.388;2023-02-15T05:39:31;34.53;;;20.87;;
44664;SDS011;30382;48.802;9.388;2023-02-15T05:42:15;38.37;;;20.47;;
44664;SDS011;30382;48.802;9.388;2023-02-15T05:44:59;30.53;;;21.97;;
44664;SDS011;30382;48.802;9.388;2023-02-15T05:47:44;35.50;;;17.23;;
44664;SDS011;30382;48.802;9.388;2023-02-15T05:50:28;50.53;;;16.60;;
44664;SDS011;30382;48.802;9.388;2023-02-15T05:53:12;59.47;;;20.27;;
44664;SDS011;30382;48.802;9.388;2023-02-15T05:55:57;28.73;;;17.93;;
44664;SDS011;30382;48.802;9.388;2023-02-15T05:58:44;39.37;;;20.40;;
44664;SDS011;30382;48.802;9.388;2023-02-15T06:01:29;29.37;;;19.30;;
44664;SDS011;30382;48.802;9.388;2023-02-15T06:04:13;25.03;;;19.10;;
44664;SDS011;30382;48.802;9.388;2023-02-15T06:06:57;89.90;;;21.23;;
44664;SDS011;30382;48.802;9.388;2023-02-15T06:09:41;81.77;;;22.70;;
44664;SDS011;30382;48.802;9.388;2023-02-15T06:12:26;75.40;;;21.63;;
44664;SDS011;30382;48.802;9.388;2023-02-15T06:15:10;82.00;;;24.10;;
44664;SDS011;30382;48.802;9.388;2023-02-15T06:17:54;54.30;;;22.90;;
44664;SDS011;30382;48.802;9.388;2023-02-15T06:20:38;42.23;;;23.50;;
44664;SDS011;30382;48.802;9.388;2023-02-15T06:23:23;36.87;;;23.50;;
44664;SDS011;30382;48.802;9.388;2023-02-15T06:26:07;45.53;;;22.87;;
44664;SDS011;30382;48.802;9.388;2023-02-15T06:28:51;45.43;;;23.33;;
44664;SDS011;30382;48.802;9.388;2023-02-15T06:31:36;55.30;;;25.33;;
44664;SDS011;30382;48.802;9.388;2023-02-15T06:34:20;55.80;;;23.87;;
44664;SDS011;30382;48.802;9.388;2023-02-15T06:37:04;54.43;;;26.17;;
44664;SDS011;30382;48.802;9.388;2023-02-15T06:39:49;52.90;;;26.47;;
44664;SDS011;30382;48.802;9.388;2023-02-15T06:42:33;50.20;;;24.87;;
44664;SDS011;30382;48.802;9.388;2023-02-15T06:45:17;48.83;;;24.97;;
44664;SDS011;30382;48.802;9.388;2023-02-15T06:48:01;42.03;;;23.43;;
44664;SDS011;30382;48.802;9.388;2023-02-15T06:50:46;62.70;;;23.13;;
44664;SDS011;30382;48.802;9.388;2023-02-15T06:53:30;54.03;;;23.10;;
44664;SDS011;30382;48.802;9.388;2023-02-15T06:56:14;46.93;;;22.63;;
44664;SDS011;30382;48.802;9.388;2023-02-15T06:58:59;54.43;;;21.27;;
44664;SDS011;30382;48.802;9.388;2023-02-15T07:01:43;34.73;;;20.77;;
44664;SDS011;30382;48.802;9.388;2023-02-15T07:04:27;45.47;;;21.57;;
44664;SDS011;30382;48.802;9.388;2023-02-15T07:07:13;44.90;;;20.67;;
44664;SDS011;30382;48.802;9.388;2023-02-15T07:09:58;39.57;;;20.47;;
44664;SDS011;30382;48.802;9.388;2023-02-15T07:12:42;32.07;;;19.47;;
44664;SDS011;30382;48.802;9.388;2023-02-15T07:15:26;30.70;;;18.70;;
44664;SDS011;30382;48.802;9.388;2023-02-15T07:18:11;28.70;;;18.20;;
44664;SDS011;30382;48.802;9.388;2023-02-15T07:20:55;30.57;;;18.17;;
44664;SDS011;30382;48.802;9.388;2023-02-15T07:23:39;32.60;;;19.20;;
44664;SDS011;30382;48.802;9.388;2023-02-15T07:26:24;27.93;;;17.90;;
44664;SDS011;30382;48.802;9.388;2023-02-15T07:29:08;29.27;;;18.03;;
44664;SDS011;30382;48.802;9.388;2023-02-15T07:31:52;32.17;;;18.73;;
44664;SDS011;30382;48.802;9.388;2023-02-15T07:34:37;36.33;;;18.60;;
44664;SDS011;30382;48.802;9.388;2023-02-15T07:37:21;38.97;;;18.93;;
44664;SDS011;30382;48.802;9.388;2023-02-15T07:40:05;39.53;;;19.27;;
44664;SDS011;30382;48.802;9.388;2023-02-15T07:42:50;51.60;;;21.90;;
44664;SDS011;30382;48.802;9.388;2023-02-15T07:45:37;34.13;;;19.80;;
44664;SDS011;30382;48.802;9.388;2023-02-15T07:48:22;27.40;;;19.27;;
44664;SDS011;30382;48.802;9.388;2023-02-15T07:51:07;30.57;;;20.77;;
44664;SDS011;30382;48.802;9.388;2023-02-15T07:53:51;27.83;;;19.63;;
44664;SDS011;30382;48.802;9.388;2023-02-15T07:56:36;35.63;;;20.63;;
44664;SDS011;30382;48.802;9.388;2023-02-15T07:59:20;30.30;;;20.27;;
44664;SDS011;30382;48.802;9.388;2023-02-15T08:02:08;31.40;;;20.10;;
44664;SDS011;30382;48.802;9.388;2023-02-15T08:04:52;28.87;;;18.97;;
44664;SDS011;30382;48.802;9.388;2023-02-15T08:07:36;31.87;;;19.20;;
44664;SDS011;30382;48.802;9.388;2023-02-15T08:10:21;32.60;;;19.23;;
44664;SDS011;30382;48.802;9.388;2023-02-15T08:13:25;27.73;;;19.67;;
44664;SDS011;30382;48.802;9.388;2023-02-15T08:16:09;31.63;;;18.83;;
44664;SDS011;30382;48.802;9.388;2023-02-15T08:18:54;34.80;;;19.90;;
44664;SDS011;30382;48.802;9.388;2023-02-15T08:21:40;27.80;;;19.83;;
44664;SDS011;30382;48.802;9.388;2023-02-15T08:24:27;30.97;;;19.27;;
44664;SDS011;30382;48.802;9.388;2023-02-15T08:27:11;30.20;;;19.23;;
44664;SDS011;30382;48.802;9.388;2023-02-15T08:29:56;30.30;;;20.50;;
44664;SDS011;30382;48.802;9.388;2023-02-15T08:32:40;26.13;;;18.07;;
44664;SDS011;30382;48.802;9.388;2023-02-15T08:35:24;26.83;;;17.50;;
44664;SDS011;30382;48.802;9.388;2023-02-15T08:38:09;22.97;;;17.30;;
44664;SDS011;30382;48.802;9.388;2023-02-15T08:40:53;24.40;;;16.30;;
44664;SDS011;30382;48.802;9.388;2023-02-15T08:43:37;32.77;;;18.70;;
44664;SDS011;30382;48.802;9.388;2023-02-15T08:46:24;27.53;;;18.97;;
44664;SDS011;30382;48.802;9.388;2023-02-15T08:49:08;22.80;;;17.30;;
44664;SDS011;30382;48.802;9.388;2023-02-15T08:51:53;23.63;;;16.87;;
44664;SDS011;30382;48.802;9.388;2023-02-15T08:54:38;23.53;;;16.97;;
44664;SDS011;30382;48.802;9.388;2023-02-15T08:57:22;30.33;;;20.50;;
44664;SDS011;30382;48.802;9.388;2023-02-15T09:00:06;27.73;;;18.30;;
44664;SDS011;30382;48.802;9.388;2023-02-15T09:02:51;27.57;;;18.60;;
44664;SDS011;30382;48.802;9.388;2023-02-15T09:05:36;25.80;;;16.60;;
44664;SDS011;30382;48.802;9.388;2023-02-15T09:08:20;26.00;;;18.57;;
44664;SDS011;30382;48.802;9.388;2023-02-15T09:11:09;21.37;;;15.13;;
44664;SDS011;30382;48.802;9.388;2023-02-15T09:16:42;28.77;;;18.70;;
44664;SDS011;30382;48.802;9.388;2023-02-15T09:19:30;32.07;;;18.50;;
44664;SDS011;30382;48.802;9.388;2023-02-15T09:22:14;24.73;;;18.80;;
44664;SDS011;30382;48.802;9.388;2023-02-15T09:24:59;25.67;;;17.70;;
44664;SDS011;30382;48.802;9.388;2023-02-15T09:27:43;24.10;;;16.60;;
44664;SDS011;30382;48.802;9.388;2023-02-15T09:30:27;24.20;;;17.20;;
44664;SDS011;30382;48.802;9.388;2023-02-15T09:33:12;26.60;;;16.67;;
44664;SDS011;30382;48.802;9.388;2023-02-15T09:35:56;24.37;;;18.90;;
44664;SDS011;30382;48.802;9.388;2023-02-15T09:38:41;28.40;;;19.73;;
44664;SDS011;30382;48.802;9.388;2023-02-15T09:52:40;25.23;;;18.63;;
44664;SDS011;30382;48.802;9.388;2023-02-15T09:55:37;24.83;;;17.70;;
44664;SDS011;30382;48.802;9.388;2023-02-15T10:04:17;23.43;;;16.53;;
44664;SDS011;30382;48.802;9.388;2023-02-15T10:10:01;21.90;;;16.57;;
44664;SDS011;30382;48.802;9.388;2023-02-15T10:12:57;20.97;;;16.87;;
44664;SDS011;30382;48.802;9.388;2023-02-15T10:21:36;21.80;;;16.73;;
44664;SDS011;30382;48.802;9.388;2023-02-15T10:27:13;25.80;;;19.53;;
44664;SDS011;30382;48.802;9.388;2023-02-15T10:33:00;23.93;;;18.50;;
44664;SDS011;30382;48.802;9.388;2023-02-15T10:42:30;20.40;;;17.13;;
44664;SDS011;30382;48.802;9.388;2023-02-15T10:48:23;19.50;;;15.63;;
44664;SDS011;30382;48.802;9.388;2023-02-15T10:51:16;24.73;;;18.37;;
44664;SDS011;30382;48.802;9.388;2023-02-15T10:54:21;19.70;;;17.20;;
44664;SDS011;30382;48.802;9.388;2023-02-15T11:00:04;20.90;;;17.33;;
44664;SDS011;30382;48.802;9.388;2023-02-15T11:03:00;23.80;;;18.17;;
44664;SDS011;30382;48.802;9.388;2023-02-15T11:08:50;26.17;;;17.00;;
44664;SDS011;30382;48.802;9.388;2023-02-15T11:11:38;22.30;;;17.53;;
44664;SDS011;30382;48.802;9.388;2023-02-15T11:17:33;22.00;;;17.43;;
44664;SDS011;30382;48.802;9.388;2023-02-15T11:20:24;20.77;;;17.13;;
44664;SDS011;30382;48.802;9.388;2023-02-15T11:23:14;27.40;;;18.07;;
44664;SDS011;30382;48.802;9.388;2023-02-15T11:26:01;21.33;;;18.77;;
44664;SDS011;30382;48.802;9.388;2023-02-15T11:28:57;20.60;;;17.37;;
44664;SDS011;30382;48.802;9.388;2023-02-15T11:31:43;22.93;;;17.80;;
44664;SDS011;30382;48.802;9.388;2023-02-15T11:34:35;23.27;;;18.80;;
44664;SDS011;30382;48.802;9.388;2023-02-15T11:37:24;20.97;;;17.67;;
44664;SDS011;30382;48.802;9.388;2023-02-15T11:40:19;24.70;;;19.43;;
44664;SDS011;30382;48.802;9.388;2023-02-15T11:43:06;23.87;;;18.73;;
44664;SDS011;30382;48.802;9.388;2023-02-15T11:45:51;26.43;;;19.57;;
44664;SDS011;30382;48.802;9.388;2023-02-15T11:48:36;53.90;;;29.63;;
44664;SDS011;30382;48.802;9.388;2023-02-15T11:51:21;22.37;;;19.07;;
44664;SDS011;30382;48.802;9.388;2023-02-15T11:54:07;25.47;;;18.27;;
44664;SDS011;30382;48.802;9.388;2023-02-15T11:56:51;20.27;;;18.07;;
44664;SDS011;30382;48.802;9.388;2023-02-15T11:59:36;24.57;;;18.07;;
44664;SDS011;30382;48.802;9.388;2023-02-15T12:02:22;23.13;;;17.87;;
44664;SDS011;30382;48.802;9.388;2023-02-15T12:05:09;24.23;;;20.80;;
44664;SDS011;30382;48.802;9.388;2023-02-15T12:07:55;20.43;;;18.13;;
44664;SDS011;30382;48.802;9.388;2023-02-15T12:13:34;26.00;;;17.80;;
44664;SDS011;30382;48.802;9.388;2023-02-15T12:16:20;20.80;;;17.53;;
44664;SDS011;30382;48.802;9.388;2023-02-15T12:21:49;17.53;;;15.80;;
44664;SDS011;30382;48.802;9.388;2023-02-15T12:24:37;16.80;;;15.13;;
44664;SDS011;30382;48.802;9.388;2023-02-15T12:32:52;19.20;;;15.43;;
44664;SDS011;30382;48.802;9.388;2023-02-15T12:38:23;21.10;;;18.93;;
44664;SDS011;30382;48.802;9.388;2023-02-15T12:41:23;17.03;;;15.30;;
44664;SDS011;30382;48.802;9.388;2023-02-15T12:49:44;17.73;;;15.90;;
44664;SDS011;30382;48.802;9.388;2023-02-15T12:52:28;17.43;;;15.73;;
44664;SDS011;30382;48.802;9.388;2023-02-15T12:55:18;18.43;;;16.83;;
44664;SDS011;30382;48.802;9.388;2023-02-15T12:58:19;18.07;;;16.33;;
44664;SDS011;30382;48.802;9.388;2023-02-15T13:01:09;25.53;;;17.77;;
44664;SDS011;30382;48.802;9.388;2023-02-15T13:03:58;27.30;;;17.30;;
44664;SDS011;30382;48.802;9.388;2023-02-15T13:06:47;21.70;;;16.50;;
44664;SDS011;30382;48.802;9.388;2023-02-15T13:09:37;34.70;;;16.40;;
44664;SDS011;30382;48.802;9.388;2023-02-15T13:12:23;25.07;;;16.03;;
44664;SDS011;30382;48.802;9.388;2023-02-15T13:15:22;17.33;;;15.70;;
44664;SDS011;30382;48.802;9.388;2023-02-15T13:18:12;19.13;;;15.80;;
44664;SDS011;30382;48.802;9.388;2023-02-15T13:21:00;16.93;;;15.27;;
44664;SDS011;30382;48.802;9.388;2023-02-15T13:23:53;16.67;;;15.00;;
44664;SDS011;30382;48.802;9.388;2023-02-15T13:26:40;20.90;;;16.97;;
44664;SDS011;30382;48.802;9.388;2023-02-15T13:29:33;22.23;;;16.40;;
44664;SDS011;30382;48.802;9.388;2023-02-15T13:32:22;22.10;;;16.60;;
44664;SDS011;30382;48.802;9.388;2023-02-15T13:35:15;22.60;;;16.73;;
44664;SDS011;30382;48.802;9.388;2023-02-15T13:38:06;16.30;;;14.90;;
44664;SDS011;30382;48.802;9.388;2023-02-15T13:41:01;20.47;;;15.57;;
44664;SDS011;30382;48.802;9.388;2023-02-15T13:43:52;27.70;;;17.03;;
44664;SDS011;30382;48.802;9.388;2023-02-15T13:46:45;22.80;;;16.83;;
44664;SDS011;30382;48.802;9.388;2023-02-15T13:50:18;17.43;;;15.20;;
44664;SDS011;30382;48.802;9.388;2023-02-15T13:52:44;15.10;;;13.40;;
44664;SDS011;30382;48.802;9.388;2023-02-15T13:55:36;21.07;;;15.40;;
44664;SDS011;30382;48.802;9.388;2023-02-15T14:04:26;15.60;;;14.20;;
44664;SDS011;30382;48.802;9.388;2023-02-15T14:07:21;16.77;;;15.07;;
44664;SDS011;30382;48.802;9.388;2023-02-15T14:16:03;21.20;;;14.60;;
44664;SDS011;30382;48.802;9.388;2023-02-15T14:19:33;22.23;;;16.93;;
44664;SDS011;30382;48.802;9.388;2023-02-15T14:22:01;16.93;;;14.60;;
44664;SDS011;30382;48.802;9.388;2023-02-15T14:24:59;33.93;;;17.10;;
44664;SDS011;30382;48.802;9.388;2023-02-15T14:27:59;23.77;;;15.83;;
44664;SDS011;30382;48.802;9.388;2023-02-15T14:30:46;18.47;;;15.87;;
44664;SDS011;30382;48.802;9.388;2023-02-15T14:33:37;18.40;;;16.07;;
44664;SDS011;30382;48.802;9.388;2023-02-15T14:36:22;16.87;;;15.17;;
44664;SDS011;30382;48.802;9.388;2023-02-15T14:42:28;27.80;;;15.50;;
44664;SDS011;30382;48.802;9.388;2023-02-15T14:48:07;21.90;;;16.00;;
44664;SDS011;30382;48.802;9.388;2023-02-15T14:50:53;21.53;;;16.37;;
44664;SDS011;30382;48.802;9.388;2023-02-15T14:53:38;36.03;;;17.30;;
44664;SDS011;30382;48.802;9.388;2023-02-15T14:56:23;21.23;;;15.83;;
44664;SDS011;30382;48.802;9.388;2023-02-15T14:59:19;24.10;;;15.50;;
44664;SDS011;30382;48.802;9.388;2023-02-15T15:05:00;19.40;;;14.40;;
44664;SDS011;30382;48.802;9.388;2023-02-15T15:07:56;16.23;;;14.53;;
44664;SDS011;30382;48.802;9.388;2023-02-15T15:39:12;36.60;;;19.60;;
44664;SDS011;30382;48.802;9.388;2023-02-15T15:47:59;24.37;;;16.60;;
44664;SDS011;30382;48.802;9.388;2023-02-15T15:50:46;29.43;;;17.47;;
44664;SDS011;30382;48.802;9.388;2023-02-15T15:53:32;49.23;;;30.33;;
44664;SDS011;30382;48.802;9.388;2023-02-15T15:56:19;49.77;;;34.80;;
44664;SDS011;30382;48.802;9.388;2023-02-15T15:59:05;35.83;;;23.57;;
44664;SDS011;30382;48.802;9.388;2023-02-15T16:01:50;31.13;;;20.90;;
44664;SDS011;30382;48.802;9.388;2023-02-15T16:04:34;23.77;;;18.40;;
44664;SDS011;30382;48.802;9.388;2023-02-15T16:10:06;23.77;;;17.00;;
44664;SDS011;30382;48.802;9.388;2023-02-15T16:12:52;21.60;;;16.37;;
44664;SDS011;30382;48.802;9.388;2023-02-15T16:15:42;27.03;;;21.03;;
44664;SDS011;30382;48.802;9.388;2023-02-15T16:18:28;22.20;;;17.10;;
44664;SDS011;30382;48.802;9.388;2023-02-15T16:21:17;25.80;;;18.30;;
44664;SDS011;30382;48.802;9.388;2023-02-15T16:24:10;23.57;;;19.83;;
44664;SDS011;30382;48.802;9.388;2023-02-15T16:29:51;32.67;;;22.80;;
44664;SDS011;30382;48.802;9.388;2023-02-15T16:32:36;38.07;;;20.27;;
44664;SDS011;30382;48.802;9.388;2023-02-15T16:35:21;36.77;;;17.10;;
44664;SDS011;30382;48.802;9.388;2023-02-15T16:38:08;22.50;;;15.00;;
44664;SDS011;30382;48.802;9.388;2023-02-15T16:40:54;29.73;;;16.70;;
44664;SDS011;30382;48.802;9.388;2023-02-15T16:43:42;28.37;;;17.40;;
44664;SDS011;30382;48.802;9.388;2023-02-15T16:46:30;19.90;;;15.20;;
44664;SDS011;30382;48.802;9.388;2023-02-15T16:49:16;22.70;;;16.07;;
44664;SDS011;30382;48.802;9.388;2023-02-15T16:52:03;30.63;;;16.87;;
44664;SDS011;30382;48.802;9.388;2023-02-15T16:54:59;20.70;;;15.83;;
44664;SDS011;30382;48.802;9.388;2023-02-15T16:57:44;28.10;;;16.37;;
44664;SDS011;30382;48.802;9.388;2023-02-15T17:00:34;35.60;;;22.50;;
44664;SDS011;30382;48.802;9.388;2023-02-15T17:03:21;48.53;;;32.80;;
44664;SDS011;30382;48.802;9.388;2023-02-15T17:06:18;48.60;;;29.97;;
44664;SDS011;30382;48.802;9.388;2023-02-15T17:09:06;46.70;;;26.60;;
44664;SDS011;30382;48.802;9.388;2023-02-15T17:11:55;55.43;;;30.33;;
44664;SDS011;30382;48.802;9.388;2023-02-15T17:14:39;82.77;;;48.37;;
44664;SDS011;30382;48.802;9.388;2023-02-15T17:17:23;66.57;;;37.20;;
44664;SDS011;30382;48.802;9.388;2023-02-15T17:20:11;41.53;;;26.90;;
44664;SDS011;30382;48.802;9.388;2023-02-15T17:22:57;30.37;;;20.60;;
44664;SDS011;30382;48.802;9.388;2023-02-15T17:25:41;30.17;;;18.67;;
44664;SDS011;30382;48.802;9.388;2023-02-15T17:28:28;26.10;;;19.37;;
44664;SDS011;30382;48.802;9.388;2023-02-15T17:36:56;25.57;;;16.40;;
44664;SDS011;30382;48.802;9.388;2023-02-15T17:39:41;26.37;;;17.33;;
44664;SDS011;30382;48.802;9.388;2023-02-15T17:42:25;29.37;;;18.23;;
44664;SDS011;30382;48.802;9.388;2023-02-15T17:45:09;30.60;;;17.10;;
44664;SDS011;30382;48.802;9.388;2023-02-15T17:47:54;24.20;;;18.67;;
44664;SDS011;30382;48.802;9.388;2023-02-15T17:50:38;28.67;;;17.67;;
44664;SDS011;30382;48.802;9.388;2023-02-15T17:53:22;22.73;;;16.80;;
44664;SDS011;30382;48.802;9.388;2023-02-15T17:56:07;22.80;;;17.50;;
44664;SDS011;30382;48.802;9.388;2023-02-15T17:58:54;24.60;;;17.60;;
44664;SDS011;30382;48.802;9.388;2023-02-15T18:01:44;22.87;;;16.70;;
44664;SDS011;30382;48.802;9.388;2023-02-15T18:10:54;20.17;;;15.80;;
44664;SDS011;30382;48.802;9.388;2023-02-15T18:13:57;23.20;;;16.57;;
44664;SDS011;30382;48.802;9.388;2023-02-15T18:16:44;22.87;;;16.03;;
44664;SDS011;30382;48.802;9.388;2023-02-15T18:19:38;25.30;;;16.30;;
44664;SDS011;30382;48.802;9.388;2023-02-15T18:27:51;33.20;;;21.45;;
44664;SDS011;30382;48.802;9.388;2023-02-15T18:30:35;31.47;;;22.10;;
44664;SDS011;30382;48.802;9.388;2023-02-15T18:33:38;31.53;;;22.77;;
44664;SDS011;30382;48.802;9.388;2023-02-15T18:36:25;27.17;;;19.97;;
44664;SDS011;30382;48.802;9.388;2023-02-15T18:39:22;30.77;;;17.90;;
44664;SDS011;30382;48.802;9.388;2023-02-15T18:42:21;23.37;;;17.60;;
44664;SDS011;30382;48.802;9.388;2023-02-15T18:45:17;20.07;;;16.23;;
44664;SDS011;30382;48.802;9.388;2023-02-15T18:48:02;22.17;;;17.87;;
44664;SDS011;30382;48.802;9.388;2023-02-15T18:50:47;22.07;;;16.10;;
44664;SDS011;30382;48.802;9.388;2023-02-15T18:53:31;27.77;;;17.77;;
44664;SDS011;30382;48.802;9.388;2023-02-15T18:56:18;21.00;;;14.37;;
44664;SDS011;30382;48.802;9.388;2023-02-15T18:59:03;17.20;;;14.63;;
44664;SDS011;30382;48.802;9.388;2023-02-15T19:01:47;18.33;;;13.80;;